createdAt,value
2022-08-11T00:01:29.939Z,88.60
2022-08-11T00:03:58.214Z,88.40
2022-08-11T00:06:32.490Z,87.50
2022-08-11T00:09:00.736Z,87.40
2022-08-11T00:11:44.919Z,88.50
2022-08-11T00:14:24.147Z,88.80
2022-08-11T00:17:10.853Z,87.70
2022-08-11T00:20:14.239Z,87.80
2022-08-11T00:22:35.900Z,86.80
2022-08-11T00:25:16.700Z,87.30
2022-08-11T00:27:43.957Z,85.80
2022-08-11T00:30:12.620Z,86.70
2022-08-11T00:32:42.210Z,88.40
2022-08-11T00:35:56.047Z,90.10
2022-08-11T00:38:02.860Z,90.40
2022-08-11T00:41:01.668Z,89.90
2022-08-11T00:44:05.612Z,90.10
2022-08-11T00:46:48.416Z,90.20
2022-08-11T00:50:00.235Z,90.20
2022-08-11T00:52:32.626Z,90.60
2022-08-11T00:55:34.068Z,91.20
2022-08-11T00:58:22.653Z,92.10
2022-08-11T01:01:08.243Z,92.40
2022-08-11T01:04:09.285Z,92.00
2022-08-11T01:08:00.486Z,91.40
2022-08-11T01:10:44.109Z,91.20
2022-08-11T01:13:32.551Z,91.20
2022-08-11T01:16:11.245Z,91.60
2022-08-11T01:18:58.082Z,91.60
2022-08-11T01:21:46.944Z,91.80
2022-08-11T01:24:19.628Z,91.60
2022-08-11T01:27:20.095Z,91.60
2022-08-11T01:30:17.514Z,91.80
2022-08-11T01:33:23.185Z,92.00
2022-08-11T01:36:10.569Z,91.90
2022-08-11T01:39:18.460Z,92.50
2022-08-11T01:42:19.336Z,93.20
2022-08-11T01:45:26.534Z,93.90
2022-08-11T01:48:02.913Z,94.70
2022-08-11T01:50:54.526Z,95.40
2022-08-11T01:53:36.725Z,96.00
2022-08-11T01:56:49.654Z,96.10
2022-08-11T01:59:34.305Z,95.70
2022-08-11T02:02:47.578Z,95.70
2022-08-11T02:05:20.380Z,96.20
2022-08-11T02:08:10.028Z,96.60
2022-08-11T02:11:12.801Z,96.70
2022-08-11T02:13:49.393Z,96.90
2022-08-11T02:16:48.752Z,97.30
2022-08-11T02:19:37.218Z,97.70
2022-08-11T02:22:55.012Z,97.90
2022-08-11T02:25:34.174Z,98.60
2022-08-11T02:28:19.205Z,99.20
2022-08-11T02:32:24.306Z,99.20
2022-08-11T02:35:00.228Z,99.30
2022-08-11T02:37:33.031Z,99.70
2022-08-11T02:40:00.472Z,99.90
2022-08-11T02:42:37.962Z,99.90
2022-08-11T02:45:33.369Z,99.90
2022-08-11T02:48:41.130Z,99.90
2022-08-11T02:51:14.045Z,99.90
2022-08-11T02:54:05.412Z,99.90
2022-08-11T02:56:56.837Z,99.90
2022-08-11T02:59:49.548Z,99.90
2022-08-11T03:02:53.633Z,99.90
2022-08-11T03:05:42.232Z,99.90
2022-08-11T03:08:11.640Z,99.90
2022-08-11T03:11:07.256Z,99.90
2022-08-11T03:13:57.720Z,99.90
2022-08-11T03:16:47.127Z,99.90
2022-08-11T03:19:34.485Z,99.90
2022-08-11T03:22:07.386Z,99.90
2022-08-11T03:24:40.405Z,99.90
2022-08-11T03:27:20.716Z,99.90
2022-08-11T03:30:13.806Z,99.90
2022-08-11T03:33:34.064Z,99.90
2022-08-11T03:37:01.757Z,99.90
2022-08-11T03:39:37.992Z,99.90
2022-08-11T03:42:30.717Z,99.90
2022-08-11T03:45:19.569Z,99.90
2022-08-11T03:48:10.420Z,99.90
2022-08-11T03:51:02.657Z,99.90
2022-08-11T03:54:11.950Z,99.90
2022-08-11T03:57:15.953Z,99.90
2022-08-11T04:00:33.203Z,99.90
2022-08-11T04:03:43.836Z,99.90
2022-08-11T04:06:38.889Z,99.90
2022-08-11T04:09:35.913Z,99.90
2022-08-11T04:12:35.628Z,99.90
2022-08-11T04:16:11.251Z,99.90
2022-08-11T04:18:58.461Z,99.90
2022-08-11T04:21:46.423Z,99.90
2022-08-11T04:24:49.735Z,99.90
2022-08-11T04:27:42.501Z,99.90
2022-08-11T04:30:17.758Z,99.90
2022-08-11T04:33:21.232Z,99.90
2022-08-11T04:36:00.377Z,99.90
2022-08-11T04:38:30.432Z,99.90
2022-08-11T04:41:57.098Z,99.90
2022-08-11T04:45:00.510Z,99.90
2022-08-11T04:48:20.724Z,99.90
2022-08-11T04:51:37.245Z,99.90
2022-08-11T04:55:06.973Z,99.90
2022-08-11T04:58:21.138Z,99.90
2022-08-11T05:01:41.218Z,99.90
2022-08-11T05:04:45.488Z,99.90
2022-08-11T05:07:40.675Z,99.90
2022-08-11T05:10:33.142Z,99.90
2022-08-11T05:13:30.548Z,99.90
2022-08-11T05:16:29.219Z,99.90
2022-08-11T05:19:17.380Z,99.90
2022-08-11T05:22:11.587Z,99.90
2022-08-11T05:25:15.489Z,99.90
2022-08-11T05:28:32.334Z,99.90
2022-08-11T05:31:25.922Z,99.90
2022-08-11T05:34:28.183Z,99.90
2022-08-11T05:37:25.835Z,99.90
2022-08-11T05:40:34.113Z,99.90
2022-08-11T05:43:22.785Z,99.90
2022-08-11T05:46:25.673Z,99.90
2022-08-11T05:49:12.857Z,99.90
2022-08-11T05:52:05.517Z,99.90
2022-08-11T05:55:00.037Z,99.90
2022-08-11T05:57:48.972Z,99.90
2022-08-11T06:02:51.987Z,99.90
2022-08-11T06:05:19.589Z,99.90
2022-08-11T06:07:49.468Z,99.90
2022-08-11T06:10:33.399Z,99.90
2022-08-11T06:13:01.757Z,99.90
2022-08-11T06:15:31.454Z,99.90
2022-08-11T06:18:01.327Z,99.90
2022-08-11T06:20:32.795Z,99.90
2022-08-11T06:23:03.755Z,99.90
2022-08-11T06:25:32.576Z,99.90
2022-08-11T06:28:00.913Z,99.90
2022-08-11T06:30:35.295Z,99.90
2022-08-11T06:33:04.812Z,99.90
2022-08-11T06:35:38.840Z,99.90
2022-08-11T06:38:16.136Z,98.80
2022-08-11T06:41:43.297Z,93.40
2022-08-11T06:44:13.202Z,88.90
2022-08-11T06:46:41.511Z,84.20
2022-08-11T06:49:30.308Z,80.90
2022-08-11T06:52:04.452Z,77.50
2022-08-11T06:54:41.382Z,73.70
2022-08-11T06:57:32.233Z,73.70
2022-08-11T07:00:19.257Z,73.50
2022-08-11T07:02:49.092Z,72.90
2022-08-11T07:05:37.534Z,73.20
2022-08-11T07:08:47.987Z,72.50
2022-08-11T07:12:00.885Z,73.20
2022-08-11T07:14:49.814Z,72.00
2022-08-11T07:17:23.625Z,71.90
2022-08-11T07:20:21.316Z,68.80
2022-08-11T07:23:15.394Z,66.60
2022-08-11T07:26:05.642Z,64.20
2022-08-11T07:28:55.050Z,64.30
2022-08-11T07:31:31.880Z,63.20
2022-08-11T07:34:17.444Z,63.70
2022-08-11T07:36:52.423Z,62.20
2022-08-11T07:39:33.268Z,61.00
2022-08-11T07:42:07.001Z,58.20
2022-08-11T07:44:55.017Z,56.70
2022-08-11T07:47:42.361Z,54.60
2022-08-11T07:50:28.744Z,54.10
2022-08-11T07:53:02.738Z,52.40
2022-08-11T07:55:50.805Z,53.80
2022-08-11T07:58:45.631Z,52.40
2022-08-11T08:01:42.795Z,50.50
2022-08-11T08:04:31.973Z,49.90
2022-08-11T08:07:19.585Z,49.90
2022-08-11T08:10:06.299Z,48.30
2022-08-11T08:12:52.729Z,49.10
2022-08-11T08:15:40.183Z,50.90
2022-08-11T08:18:26.243Z,50.70
2022-08-11T08:20:56.769Z,50.10
2022-08-11T08:23:34.147Z,49.20
2022-08-11T08:26:04.467Z,48.70
2022-08-11T08:28:33.536Z,48.60
2022-08-11T08:31:00.817Z,48.30
2022-08-11T08:33:30.207Z,48.40
2022-08-11T08:36:12.588Z,48.40
2022-08-11T08:38:42.181Z,47.90
2022-08-11T08:41:10.127Z,47.60
2022-08-11T08:43:47.568Z,47.20
2022-08-11T08:46:22.030Z,46.40
2022-08-11T08:48:50.457Z,46.10
2022-08-11T08:52:01.044Z,46.60
2022-08-11T08:54:43.553Z,46.10
2022-08-11T08:57:12.091Z,45.30
2022-08-11T08:59:49.047Z,47.20
2022-08-11T09:02:19.952Z,46.50
2022-08-11T09:05:03.929Z,45.50
2022-08-11T09:07:38.835Z,44.70
2022-08-11T09:10:09.313Z,44.80
2022-08-11T09:12:39.214Z,44.80
2022-08-11T09:15:09.085Z,45.10
2022-08-11T09:17:44.562Z,45.60
2022-08-11T09:20:29.168Z,44.80
2022-08-11T09:26:30.859Z,43.50
2022-08-11T09:28:59.510Z,43.80
2022-08-11T09:31:30.260Z,44.50
2022-08-11T09:33:58.594Z,44.70
2022-08-11T09:36:45.145Z,44.10
2022-08-11T09:39:32.355Z,42.70
2022-08-11T09:42:04.401Z,41.10
2022-08-11T09:44:49.833Z,41.50
2022-08-11T09:47:26.204Z,41.70
2022-08-11T09:50:01.707Z,41.20
2022-08-11T09:52:37.774Z,41.70
2022-08-11T09:55:11.047Z,42.00
2022-08-11T09:58:04.696Z,42.40
2022-08-11T10:00:34.253Z,42.90
2022-08-11T10:03:02.698Z,42.30
2022-08-11T10:05:49.505Z,41.00
2022-08-11T10:08:19.672Z,41.50
2022-08-11T10:10:47.939Z,41.30
2022-08-11T10:14:04.838Z,40.30
2022-08-11T10:16:15.534Z,39.20
2022-08-11T10:18:51.501Z,39.60
2022-08-11T10:21:25.047Z,40.60
2022-08-11T10:24:12.168Z,41.50
2022-08-11T10:26:54.477Z,40.90
2022-08-11T10:29:50.190Z,39.70
2022-08-11T10:32:57.393Z,39.30
2022-08-11T10:35:31.657Z,39.40
2022-08-11T10:38:08.222Z,39.20
2022-08-11T10:40:40.953Z,39.10
2022-08-11T10:44:01.533Z,38.20
2022-08-11T10:46:28.567Z,38.20
2022-08-11T10:48:59.111Z,37.80
2022-08-11T10:51:51.526Z,37.80
2022-08-11T10:54:39.606Z,38.00
2022-08-11T10:57:26.002Z,38.00
2022-08-11T10:59:55.077Z,37.40
2022-08-11T11:02:22.553Z,39.40
2022-08-11T11:05:24.929Z,39.70
2022-08-11T11:08:33.089Z,38.50
2022-08-11T11:11:02.621Z,36.70
2022-08-11T11:13:53.217Z,35.70
2022-08-11T11:16:44.266Z,35.60
2022-08-11T11:19:13.070Z,36.30
2022-08-11T11:21:42.337Z,37.40
2022-08-11T11:24:37.436Z,37.30
2022-08-11T11:27:09.785Z,37.60
2022-08-11T11:30:02.917Z,36.00
2022-08-11T11:32:35.632Z,36.70
2022-08-11T11:35:26.759Z,35.80
2022-08-11T11:38:04.459Z,35.30
2022-08-11T11:40:33.150Z,35.10
2022-08-11T11:43:00.950Z,35.10
2022-08-11T11:45:27.998Z,35.70
2022-08-11T11:47:58.286Z,36.30
2022-08-11T11:50:25.209Z,36.90
2022-08-11T11:53:00.229Z,37.00
2022-08-11T11:55:28.136Z,37.30
2022-08-11T11:58:18.480Z,37.30
2022-08-11T12:01:05.949Z,37.50
2022-08-11T12:03:36.033Z,36.50
2022-08-11T12:06:04.141Z,36.30
2022-08-11T12:08:32.145Z,36.40
2022-08-11T12:11:20.874Z,35.60
2022-08-11T12:13:50.940Z,35.20
2022-08-11T12:16:33.991Z,34.00
2022-08-11T12:19:06.678Z,33.80
2022-08-11T12:21:35.938Z,35.20
2022-08-11T12:24:22.792Z,37.10
2022-08-11T12:27:17.860Z,37.30
2022-08-11T12:29:55.336Z,36.20
2022-08-11T12:32:25.918Z,35.80
2022-08-11T12:34:53.653Z,35.50
2022-08-11T12:37:24.376Z,36.40
2022-08-11T12:40:43.494Z,36.00
2022-08-11T12:43:37.122Z,35.40
2022-08-11T12:46:14.113Z,35.60
2022-08-11T12:49:15.181Z,35.30
2022-08-11T12:52:11.286Z,35.70
2022-08-11T12:55:39.304Z,36.50
2022-08-11T12:58:17.553Z,36.30
2022-08-11T13:01:04.432Z,37.10
2022-08-11T13:03:56.433Z,37.30
2022-08-11T13:06:25.208Z,36.50
2022-08-11T13:08:53.282Z,36.60
2022-08-11T13:11:56.267Z,36.60
2022-08-11T13:14:27.330Z,35.90
2022-08-11T13:17:13.444Z,35.80
2022-08-11T13:19:47.474Z,37.60
2022-08-11T13:22:18.681Z,39.50
2022-08-11T13:24:46.241Z,38.50
2022-08-11T13:27:13.101Z,37.90
2022-08-11T13:29:42.672Z,37.40
2022-08-11T13:32:11.365Z,37.30
2022-08-11T13:34:42.280Z,39.60
2022-08-11T13:37:15.187Z,41.00
2022-08-11T13:39:47.195Z,41.10
2022-08-11T13:42:16.389Z,41.60
2022-08-11T13:44:44.322Z,42.20
2022-08-11T13:47:14.349Z,42.30
2022-08-11T13:49:42.605Z,42.30
2022-08-11T13:52:17.567Z,42.70
2022-08-11T13:54:47.942Z,42.40
2022-08-11T13:58:07.179Z,43.30
2022-08-11T14:00:23.572Z,42.90
2022-08-11T14:02:56.860Z,42.40
2022-08-11T14:05:40.348Z,42.90
2022-08-11T14:08:37.143Z,42.90
2022-08-11T14:12:23.261Z,42.60
2022-08-11T14:14:21.204Z,43.80
2022-08-11T14:16:51.093Z,43.90
2022-08-11T14:19:24.085Z,43.50
2022-08-11T14:22:08.649Z,42.90
2022-08-11T14:24:40.821Z,42.90
2022-08-11T14:27:39.130Z,43.00
2022-08-11T14:29:58.428Z,43.10
2022-08-11T14:32:26.785Z,42.80
2022-08-11T14:34:55.086Z,42.60
2022-08-11T14:37:25.104Z,43.90
2022-08-11T14:40:02.230Z,43.40
2022-08-11T14:42:48.649Z,43.60
2022-08-11T14:45:55.544Z,42.60
2022-08-11T14:48:23.017Z,43.50
2022-08-11T14:50:50.438Z,43.30
2022-08-11T14:53:18.822Z,43.10
2022-08-11T14:56:05.334Z,42.70
2022-08-11T14:58:33.871Z,43.70
2022-08-11T15:01:02.466Z,44.40
2022-08-11T15:03:33.443Z,43.60
2022-08-11T15:06:02.444Z,43.90
2022-08-11T15:08:51.985Z,43.80
2022-08-11T15:11:40.129Z,43.10
2022-08-11T15:14:09.262Z,44.10
2022-08-11T15:17:02.654Z,44.40
2022-08-11T15:19:40.600Z,44.80
2022-08-11T15:22:28.710Z,44.40
2022-08-11T15:24:58.468Z,44.30
2022-08-11T15:27:44.814Z,44.30
2022-08-11T15:30:33.166Z,45.30
2022-08-11T15:33:26.002Z,44.70
2022-08-11T15:36:12.928Z,44.60
2022-08-11T15:38:49.293Z,44.30
2022-08-11T15:41:58.487Z,44.60
2022-08-11T15:45:02.818Z,44.00
2022-08-11T15:47:41.622Z,44.50
2022-08-11T15:50:14.815Z,45.10
2022-08-11T15:53:06.349Z,45.50
2022-08-11T15:55:36.173Z,44.70
2022-08-11T15:58:25.937Z,44.70
2022-08-11T16:01:13.530Z,44.30
2022-08-11T16:04:12.191Z,44.90
2022-08-11T16:06:47.917Z,45.10
2022-08-11T16:09:21.786Z,45.30
2022-08-11T16:11:49.951Z,45.20
2022-08-11T16:14:37.105Z,45.20
2022-08-11T16:17:06.908Z,45.30
2022-08-11T16:19:36.456Z,44.80
2022-08-11T16:22:09.608Z,44.80
2022-08-11T16:27:03.990Z,44.90
2022-08-11T16:27:35.130Z,45.20
2022-08-11T16:30:03.033Z,44.60
2022-08-11T16:32:32.018Z,44.20
2022-08-11T16:35:20.114Z,44.20
2022-08-11T16:38:06.737Z,44.30
2022-08-11T16:40:34.418Z,44.10
2022-08-11T16:43:23.853Z,45.20
2022-08-11T16:46:18.446Z,45.10
2022-08-11T16:48:48.766Z,44.50
2022-08-11T16:51:16.279Z,44.60
2022-08-11T16:54:00.131Z,44.30
2022-08-11T16:56:57.222Z,44.40
2022-08-11T16:59:37.009Z,44.30
2022-08-11T17:02:09.006Z,44.70
2022-08-11T17:05:11.004Z,44.70
2022-08-11T17:08:07.479Z,44.70
2022-08-11T17:11:16.097Z,45.40
2022-08-11T17:13:54.825Z,45.80
2022-08-11T17:16:29.253Z,45.80
2022-08-11T17:19:05.312Z,45.80
2022-08-11T17:22:01.798Z,45.90
2022-08-11T17:24:31.570Z,46.00
2022-08-11T17:27:00.797Z,46.30
2022-08-11T17:29:54.764Z,45.80
2022-08-11T17:32:56.287Z,44.40
2022-08-11T17:35:34.811Z,44.10
2022-08-11T17:38:04.326Z,44.70
2022-08-11T17:40:33.971Z,44.50
2022-08-11T17:43:20.576Z,43.40
2022-08-11T17:46:08.393Z,43.30
2022-08-11T17:48:47.916Z,44.00
2022-08-11T17:51:39.268Z,44.30
2022-08-11T17:54:27.879Z,44.60
2022-08-11T17:57:21.246Z,44.70
2022-08-11T17:59:53.880Z,44.50
2022-08-11T18:02:53.424Z,44.00
2022-08-11T18:05:28.163Z,44.30
2022-08-11T18:08:16.483Z,44.60
2022-08-11T18:11:03.442Z,44.80
2022-08-11T18:13:51.345Z,45.00
2022-08-11T18:16:37.877Z,45.30
2022-08-11T18:19:25.467Z,45.60
2022-08-11T18:22:19.032Z,45.70
2022-08-11T18:25:12.095Z,46.10
2022-08-11T18:28:02.039Z,46.30
2022-08-11T18:30:50.646Z,46.60
2022-08-11T18:34:06.037Z,46.90
2022-08-11T18:37:00.497Z,47.40
2022-08-11T18:39:56.006Z,47.50
2022-08-11T18:42:43.097Z,47.90
2022-08-11T18:45:36.415Z,48.20
2022-08-11T18:48:37.492Z,48.70
2022-08-11T18:51:31.336Z,48.90
2022-08-11T18:54:28.477Z,49.40
2022-08-11T18:57:18.341Z,49.50
2022-08-11T19:00:05.422Z,50.10
2022-08-11T19:02:54.104Z,50.70
2022-08-11T19:06:32.010Z,51.00
2022-08-11T19:08:49.727Z,51.20
2022-08-11T19:11:42.802Z,50.50
2022-08-11T19:14:31.507Z,52.10
2022-08-11T19:17:43.286Z,50.90
2022-08-11T19:20:28.951Z,51.30
2022-08-11T19:23:16.223Z,51.80
2022-08-11T19:26:06.375Z,52.40
2022-08-11T19:28:55.237Z,53.50
2022-08-11T19:31:44.822Z,53.90
2022-08-11T19:34:34.361Z,54.20
2022-08-11T19:37:24.690Z,54.20
2022-08-11T19:40:13.409Z,53.80
2022-08-11T19:43:00.519Z,54.20
2022-08-11T19:45:52.589Z,54.10
2022-08-11T19:48:41.111Z,54.60
2022-08-11T19:51:28.547Z,55.10
2022-08-11T19:54:15.366Z,56.60
2022-08-11T19:57:02.387Z,55.60
2022-08-11T19:59:50.246Z,56.10
2022-08-11T20:02:36.797Z,56.00
2022-08-11T20:05:23.849Z,55.80
2022-08-11T20:08:10.826Z,55.20
2022-08-11T20:10:57.450Z,55.70
2022-08-11T20:13:45.516Z,56.60
2022-08-11T20:16:34.402Z,56.80
2022-08-11T20:19:25.977Z,56.80
2022-08-11T20:22:27.841Z,57.20
2022-08-11T20:25:14.224Z,57.70
2022-08-11T20:28:02.729Z,57.70
2022-08-11T20:30:51.843Z,58.20
2022-08-11T20:33:40.378Z,57.80
2022-08-11T20:36:26.815Z,57.50
2022-08-11T20:39:13.829Z,57.60
2022-08-11T20:42:00.674Z,58.10
2022-08-11T20:44:48.209Z,57.90
2022-08-11T20:47:59.225Z,58.30
2022-08-11T20:50:45.630Z,58.30
2022-08-11T20:53:35.586Z,58.20
2022-08-11T20:59:38.330Z,60.30
2022-08-11T21:02:27.255Z,60.20
2022-08-11T21:05:15.797Z,61.10
2022-08-11T21:08:09.521Z,61.60
2022-08-11T21:10:59.981Z,62.00
2022-08-11T21:13:51.361Z,62.10
2022-08-11T21:16:42.008Z,62.30
2022-08-11T21:20:00.388Z,61.60
2022-08-11T21:23:24.399Z,63.20
2022-08-11T21:26:32.173Z,64.10
2022-08-11T21:29:19.255Z,64.80
2022-08-11T21:32:06.228Z,65.50
2022-08-11T21:34:53.273Z,64.20
2022-08-11T21:37:40.183Z,64.10
2022-08-11T21:40:29.501Z,64.80
2022-08-11T21:43:17.041Z,65.80
2022-08-11T21:46:05.137Z,67.20
2022-08-11T21:48:51.121Z,67.70
2022-08-11T21:51:36.686Z,68.20
2022-08-11T21:54:27.062Z,68.60
2022-08-11T21:57:14.121Z,67.90
2022-08-11T22:00:16.637Z,67.80
2022-08-11T22:03:03.779Z,68.70
2022-08-11T22:05:51.775Z,68.20
2022-08-11T22:08:37.601Z,68.30
2022-08-11T22:11:31.802Z,68.40
2022-08-11T22:14:22.595Z,68.80
2022-08-11T22:17:08.873Z,69.40
2022-08-11T22:19:59.678Z,70.00
2022-08-11T22:22:52.324Z,69.90
2022-08-11T22:25:49.938Z,70.40
2022-08-11T22:28:38.490Z,70.50
2022-08-11T22:31:26.403Z,70.70
2022-08-11T22:34:12.065Z,70.60
2022-08-11T22:36:59.235Z,70.20
2022-08-11T22:39:45.266Z,70.30
2022-08-11T22:42:47.505Z,71.10
2022-08-11T22:45:33.252Z,72.40
2022-08-11T22:48:20.166Z,72.60
2022-08-11T22:51:06.302Z,71.50
2022-08-11T22:53:57.808Z,70.40
2022-08-11T22:56:47.082Z,70.90
2022-08-11T22:59:33.936Z,71.30
2022-08-11T23:02:22.435Z,71.50
2022-08-11T23:05:08.891Z,71.70
2022-08-11T23:07:55.897Z,72.50
2022-08-11T23:10:42.460Z,73.20
2022-08-11T23:13:28.087Z,73.80
2022-08-11T23:16:14.120Z,74.20
2022-08-11T23:19:00.573Z,73.60
2022-08-11T23:21:46.387Z,75.10
2022-08-11T23:24:32.270Z,74.30
2022-08-11T23:27:20.900Z,74.50
2022-08-11T23:30:09.541Z,74.20
2022-08-11T23:32:56.022Z,74.50
2022-08-11T23:35:54.887Z,75.00
2022-08-11T23:38:43.652Z,75.70
2022-08-11T23:41:31.574Z,76.50
2022-08-11T23:44:19.527Z,77.00
2022-08-11T23:47:09.023Z,77.50
2022-08-11T23:49:58.719Z,77.00
2022-08-11T23:52:46.329Z,77.10
2022-08-11T23:55:31.825Z,77.10
2022-08-11T23:58:17.424Z,77.00
